This is the latest recevied weather packets stored in our database for station/object LU3GHF-13. If no packets are shown the sender has not sent any weather packets the latest 10 day(s).
| Time | Temp. | Humidity | Pressure | Rain* | Wind** | Luminosity | Snow |
|---|---|---|---|---|---|---|---|
| 1788475575 | 25.56° C | 72% | 1005.4 hPa | - | - | - | - |
| 1788474988 | 25.56° C | 71% | 1005 hPa | - | - | - | - |
| 1788474357 | 26.67° C | 68% | 1004.9 hPa | - | - | - | - |
| 1788473727 | 26.67° C | 64% | 1004.6 hPa | - | - | - | - |
| 1788473068 | 27.22° C | 62% | 1004.3 hPa | - | - | - | - |
| 1788472423 | 27.78° C | 62% | 1004.2 hPa | - | - | - | - |
| 1788471814 | 27.78° C | 61% | 1004.1 hPa | - | - | - | - |
| 1788471150 | 27.78° C | 61% | 1004.1 hPa | - | - | - | - |
| 1788470491 | 28.89° C | 60% | 1004 hPa | - | - | - | - |
| 1788469888 | 29.44° C | 60% | 1003.9 hPa | - | - | - | - |
| 1788469283 | 28.89° C | 61% | 1003.8 hPa | - | - | - | - |
| 1788468654 | 29.44° C | 61% | 1003.8 hPa | - | - | - | - |
| 1788468033 | 29.44° C | 61% | 1003.5 hPa | - | - | - | - |
| 1788467431 | 30° C | 60% | 1003.3 hPa | - | - | - | - |
| 1788466816 | 31.67° C | 51% | 1002.8 hPa | - | - | - | - |
| 1788466166 | 32.78° C | 49% | 1002.6 hPa | - | - | - | - |
| 1788465540 | 33.33° C | 49% | 1002.6 hPa | - | - | - | - |
| 1788464915 | 33.33° C | 48% | 1002.5 hPa | - | - | - | - |
| 1788464301 | 33.33° C | 48% | 1002.4 hPa | - | - | - | - |
| 1788463642 | 33.89° C | 47% | 1002.3 hPa | - | - | - | - |
| 1788463023 | 33.33° C | 48% | 1002.3 hPa | - | - | - | - |
| 1788461771 | 32.78° C | 48% | 1002.3 hPa | - | - | - | - |
| 1788461171 | 32.78° C | 49% | 1002.5 hPa | - | - | - | - |
| 1788460544 | 33.89° C | 47% | 1002.4 hPa | - | - | - | - |
| 1788459920 | 32.78° C | 49% | 1002.5 hPa | - | - | - | - |
* Rain since midnight (hover to see other rain measurements)
** Current wind speed in m/s (hover to see current wind gust speed)